Aldine, Texas
Current Conditions -  °F | °C
As of 5:53 AM on Monday 26 Jan 2015 (Local Time) from KIAH Reporting Station
Scattered Clouds Scattered Clouds  
Wind Chill: 46°   Ceiling: Unl
Heat Index: 48°   Visibility: 10mi
Dew Point: 29°   Wind: 5mph
Humidity: 48%   Direction: 310°NW
Pressure: 30.19"   Gusts: NA
Location:  29.93°N, 95.38°W
Report Text: KIAH 261153Z 31004KT 10SM SCT250 09/M02 A3019 RMK AO2 SLP224 T00891017 10139 20083 53012
Loading
Personal Weather Stations






























Interactive Weather Map New forecast layout! Learn more

10-Day Weather Forecast

Advertisements
Track Severe Weather on mobile